Time;durP1;ratioP1;P1;durP2;ratioP2;P2;SDS_P1;SDS_P2;PMS_P1;PMS_P2;Temp;Humidity;BMP_temperature;BMP_pressure;BME280_temperature;BME280_humidity;BME280_pressure;Samples;Min_cycle;Max_cycle;Signal;HPM_P1;HPM_P2
2020/01/21 00:02:05;;;;;;;27;24.4;;;;;;;-0.07;98.27148;983.1053;;;;
2020/01/21 00:04:51;;;;;;;30.3;27.3;;;;;;;-0.2;98.91504;983.0952;;;;
2020/01/21 00:09:07;;;;;;;31.1;28;;;;;;;0.16;97.86719;983.1091;;;;
2020/01/21 00:11:31;;;;;;;33.4;30;;;;;;;-0.09;98.71582;983.065;;;;
2020/01/21 00:13:56;;;;;;;35;31.5;;;;;;;-0.1;98.52344;983.152;;;;
2020/01/21 00:16:23;;;;;;;37.5;33.7;;;;;;;-0.14;98.7373;983.1188;;;;
2020/01/21 00:18:48;;;;;;;39;35;;;;;;;-0.26;99.27344;983.1258;;;;
2020/01/21 00:21:13;;;;;;;41.2;36.9;;;;;;;-0.38;100;983.0897;;;;
2020/01/21 00:23:38;;;;;;;40;35.8;;;;;;;-0.39;100;983.0353;;;;
2020/01/21 00:26:03;;;;;;;41.7;37.2;;;;;;;-0.32;100;983.0611;;;;
2020/01/21 00:28:28;;;;;;;39.2;35.1;;;;;;;-0.22;100;983.0684;;;;
2020/01/21 00:30:53;;;;;;;40.1;36;;;;;;;-0.3;100;983.0314;;;;
2020/01/21 00:33:18;;;;;;;41.5;37.1;;;;;;;-0.25;100;983.0424;;;;
2020/01/21 00:35:43;;;;;;;41.2;37;;;;;;;-0.34;100;983.1091;;;;
2020/01/21 00:38:08;;;;;;;42;37.6;;;;;;;-0.22;100;983.1106;;;;
2020/01/21 00:40:33;;;;;;;42.2;37.9;;;;;;;-0.19;99.99512;983.137;;;;
2020/01/21 00:42:58;;;;;;;41.2;37;;;;;;;-0.19;100;983.1781;;;;
2020/01/21 00:45:24;;;;;;;40.8;36.5;;;;;;;-0.24;100;983.0854;;;;
2020/01/21 00:47:49;;;;;;;42.1;37.7;;;;;;;-0.25;100;983.1113;;;;
2020/01/21 00:50:14;;;;;;;41.4;37.1;;;;;;;-0.16;99.77734;983.1022;;;;
2020/01/21 00:52:39;;;;;;;41.3;37;;;;;;;-0.11;99.67773;983.1442;;;;
2020/01/21 00:55:04;;;;;;;42.7;38.3;;;;;;;-0.24;99.98438;983.0862;;;;
2020/01/21 00:57:29;;;;;;;42.8;38.5;;;;;;;-0.08;99.71777;983.0798;;;;
2020/01/21 00:59:54;;;;;;;44.1;39.4;;;;;;;-0.21;99.99121;983.0636;;;;
2020/01/21 01:02:19;;;;;;;43;38.6;;;;;;;-0.13;100;983.0212;;;;
2020/01/21 01:04:44;;;;;;;42;37.6;;;;;;;0.09;98.84766;982.9847;;;;
2020/01/21 01:07:10;;;;;;;43.6;39.1;;;;;;;-0.05;99.47852;983.0278;;;;
2020/01/21 01:09:35;;;;;;;42.3;37.9;;;;;;;-0.02;99.14844;983.0549;;;;
2020/01/21 01:12:00;;;;;;;42.2;38;;;;;;;0.06;98.81934;983.0771;;;;
2020/01/21 01:14:25;;;;;;;43;38.5;;;;;;;0.03;98.74512;983.0672;;;;
2020/01/21 01:16:50;;;;;;;42.1;37.8;;;;;;;-0.05;98.72656;983.0903;;;;
2020/01/21 01:19:20;;;;;;;42.9;38.5;;;;;;;-0.05;99.08594;983.0897;;;;
2020/01/21 01:24:05;;;;;;;43.2;38.7;;;;;;;-0.09;99.38965;983.0682;;;;
2020/01/21 01:26:30;;;;;;;42.4;37.9;;;;;;;-0.04;98.7959;983.0703;;;;
2020/01/21 01:28:56;;;;;;;42.1;37.7;;;;;;;-0.06;98.85742;983.1425;;;;
2020/01/21 01:33:00;;;;;;;42.1;37.7;;;;;;;0;99.2334;983.0511;;;;
2020/01/21 01:35:25;;;;;;;41.2;37;;;;;;;0;98.91895;982.9959;;;;
2020/01/21 01:37:50;;;;;;;43.4;38.9;;;;;;;-0.22;99.43652;983.0203;;;;
2020/01/21 01:40:15;;;;;;;42.9;38.5;;;;;;;-0.11;99.34082;983.1238;;;;
2020/01/21 01:42:41;;;;;;;41.7;37.5;;;;;;;-0.02;99.18164;983.0474;;;;
2020/01/21 01:45:06;;;;;;;40.3;36.2;;;;;;;0.05;97.95215;983.0164;;;;
2020/01/21 01:47:31;;;;;;;40.5;36.3;;;;;;;-0.07;97.97949;982.9766;;;;
2020/01/21 01:49:56;;;;;;;41.4;37.2;;;;;;;-0.13;98.44043;982.9256;;;;
2020/01/21 01:52:21;;;;;;;40.9;36.7;;;;;;;-0.03;97.75586;982.8898;;;;
2020/01/21 01:54:46;;;;;;;39.9;35.8;;;;;;;-0.19;97.73926;982.8763;;;;
2020/01/21 01:57:11;;;;;;;40.8;36.7;;;;;;;-0.05;97.95215;982.8862;;;;
2020/01/21 01:59:43;;;;;;;38.9;35;;;;;;;-0.03;97.60645;982.8464;;;;
2020/01/21 02:02:09;;;;;;;41.7;37.4;;;;;;;-0.16;97.70215;982.8105;;;;
2020/01/21 02:04:47;;;;;;;39.7;35.7;;;;;;;-0.13;97.50684;982.7776;;;;
2020/01/21 02:07:21;;;;;;;38.3;34.4;;;;;;;0.09;96.33203;982.7274;;;;
2020/01/21 02:09:28;;;;;;;38.6;34.7;;;;;;;-0.06;96.2207;982.7144;;;;
2020/01/21 02:13:34;;;;;;;37.1;33.3;;;;;;;0.05;95.96484;982.6894;;;;
2020/01/21 02:16:35;;;;;;;38.5;34.5;;;;;;;0.11;96.06934;982.6733;;;;
2020/01/21 02:18:57;;;;;;;38.1;34.3;;;;;;;-0.08;96.50879;982.7059;;;;
2020/01/21 02:21:22;;;;;;;37.6;33.8;;;;;;;0.05;96.00781;982.6739;;;;
2020/01/21 02:23:47;;;;;;;39.5;35.5;;;;;;;-0.05;97.06348;982.6716;;;;
2020/01/21 02:26:12;;;;;;;39.3;35.3;;;;;;;0.09;96.12988;982.6852;;;;
2020/01/21 02:28:37;;;;;;;40.1;35.9;;;;;;;0;96.87305;982.6458;;;;
2020/01/21 02:31:02;;;;;;;39;35.1;;;;;;;-0.04;96.41602;982.6803;;;;
2020/01/21 02:33:27;;;;;;;38.8;34.8;;;;;;;0.01;96.63965;982.6742;;;;
2020/01/21 02:35:52;;;;;;;38.5;34.6;;;;;;;-0.01;96.60352;982.6144;;;;
2020/01/21 02:38:17;;;;;;;38.6;34.7;;;;;;;0.13;96.29785;982.6139;;;;
2020/01/21 02:40:46;;;;;;;40.9;36.7;;;;;;;-0.08;96.63281;982.6241;;;;
2020/01/21 02:43:08;;;;;;;40.4;36.2;;;;;;;-0.06;96.72461;982.5598;;;;
2020/01/21 02:45:35;;;;;;;37.9;34;;;;;;;-0.03;95.86816;982.5541;;;;
2020/01/21 02:47:58;;;;;;;38.1;34.2;;;;;;;-0.03;95.64551;982.5132;;;;
2020/01/21 02:50:23;;;;;;;37.9;34;;;;;;;0;95.89844;982.4966;;;;
2020/01/21 02:52:48;;;;;;;39;35;;;;;;;-0.06;96.61426;982.4975;;;;
2020/01/21 02:55:13;;;;;;;37.2;33.5;;;;;;;0.01;95.8877;982.5242;;;;
2020/01/21 02:57:38;;;;;;;37.5;33.8;;;;;;;0.02;95.58594;982.4722;;;;
2020/01/21 03:00:03;;;;;;;38.1;34.2;;;;;;;0.18;95.52344;982.543;;;;
2020/01/21 03:02:28;;;;;;;37.5;33.7;;;;;;;0.12;94.98145;982.465;;;;
2020/01/21 03:04:53;;;;;;;39.6;35.6;;;;;;;-0.03;96.50586;982.4281;;;;
2020/01/21 03:07:19;;;;;;;38.3;34.6;;;;;;;0.1;96.27832;982.4972;;;;
2020/01/21 03:09:44;;;;;;;39.6;35.6;;;;;;;0.11;95.99023;982.5478;;;;
2020/01/21 03:12:09;;;;;;;38.1;34.3;;;;;;;0.14;96.17578;982.4808;;;;
2020/01/21 03:14:34;;;;;;;36.7;33;;;;;;;0.14;95.6709;982.4615;;;;
2020/01/21 03:16:59;;;;;;;37.9;34.1;;;;;;;0.16;95.57422;982.4539;;;;
2020/01/21 03:19:24;;;;;;;36.8;33;;;;;;;0.15;94.85254;982.4573;;;;
2020/01/21 03:21:49;;;;;;;37.4;33.6;;;;;;;0.15;94.81934;982.4423;;;;
2020/01/21 03:24:14;;;;;;;37;33.3;;;;;;;0.19;95.04297;982.4841;;;;
2020/01/21 03:26:40;;;;;;;38.2;34.3;;;;;;;0.06;95.33789;982.5225;;;;
2020/01/21 03:29:05;;;;;;;37.8;33.9;;;;;;;0.19;95.53711;982.437;;;;
2020/01/21 03:31:31;;;;;;;36.7;33;;;;;;;0.18;95.25195;982.4059;;;;
2020/01/21 03:33:56;;;;;;;36.4;32.7;;;;;;;0.41;94.50684;982.4387;;;;
2020/01/21 03:36:22;;;;;;;38.7;34.9;;;;;;;0.34;94.37988;982.4196;;;;
2020/01/21 03:38:53;;;;;;;38.5;34.7;;;;;;;0.23;94.60352;982.4691;;;;
2020/01/21 03:41:15;;;;;;;37.9;34;;;;;;;0.47;93.4082;982.4114;;;;
2020/01/21 03:50:59;;;;;;;39.2;35.2;;;;;;;0.32;93.75586;982.3674;;;;
2020/01/21 03:53:17;;;;;;;39.3;35.3;;;;;;;0.18;94.46582;982.3889;;;;
2020/01/21 03:55:42;;;;;;;40;36;;;;;;;0.2;94.5957;982.3075;;;;
2020/01/21 03:58:07;;;;;;;38.7;34.7;;;;;;;0.26;93.88867;982.2611;;;;
2020/01/21 04:02:28;;;;;;;37.8;34;;;;;;;0.23;94.51172;982.24;;;;
2020/01/21 04:04:53;;;;;;;38.1;34.2;;;;;;;0.35;93.21191;982.2639;;;;
2020/01/21 04:07:18;;;;;;;38.9;35;;;;;;;0.38;93.6582;982.2866;;;;
2020/01/21 04:09:44;;;;;;;38.3;34.5;;;;;;;0.26;94.36035;982.1836;;;;
2020/01/21 04:12:09;;;;;;;38.7;34.8;;;;;;;0.14;95.1543;982.2098;;;;
2020/01/21 04:14:34;;;;;;;37;33.4;;;;;;;0.15;94.30273;982.1794;;;;
2020/01/21 04:16:59;;;;;;;37.6;33.9;;;;;;;0.22;94.34082;982.1562;;;;
2020/01/21 04:19:24;;;;;;;38.3;34.3;;;;;;;0.23;94.33203;982.1538;;;;
2020/01/21 04:21:49;;;;;;;38.6;34.7;;;;;;;0.04;94.90527;982.0553;;;;
2020/01/21 04:24:28;;;;;;;38.8;34.9;;;;;;;0.19;94.63672;982.1287;;;;
2020/01/21 04:26:39;;;;;;;40.2;36.1;;;;;;;0.28;93.39844;982.1317;;;;
2020/01/21 04:29:04;;;;;;;40.4;36.2;;;;;;;0.17;94.55371;982.1624;;;;
2020/01/21 04:31:29;;;;;;;40.2;36.1;;;;;;;-0.04;95.37207;982.1007;;;;
2020/01/21 04:33:54;;;;;;;40.7;36.5;;;;;;;0.17;94.78906;982.1208;;;;
2020/01/21 04:36:19;;;;;;;38.5;34.6;;;;;;;0.38;93.51172;982.1359;;;;
2020/01/21 04:38:45;;;;;;;39;35.1;;;;;;;0.24;94.44629;982.0748;;;;
2020/01/21 04:41:10;;;;;;;39;35;;;;;;;0.26;93.38281;982.0975;;;;
2020/01/21 04:43:35;;;;;;;39.4;35.6;;;;;;;0.17;94.08203;982.1577;;;;
2020/01/21 04:46:00;;;;;;;40.3;36.1;;;;;;;-0.08;94.79102;982.1075;;;;
2020/01/21 04:48:25;;;;;;;39;35;;;;;;;0.03;95.91602;982.0981;;;;
2020/01/21 04:50:50;;;;;;;39;35;;;;;;;0.13;94.62402;982.141;;;;
2020/01/21 04:53:15;;;;;;;37.9;34;;;;;;;0.22;94.79004;982.1188;;;;
2020/01/21 04:55:40;;;;;;;38.2;34.4;;;;;;;0.16;94.33789;982.175;;;;
2020/01/21 04:58:06;;;;;;;37.4;33.6;;;;;;;0.22;93.1709;982.1392;;;;
2020/01/21 05:00:31;;;;;;;40.1;36;;;;;;;0.09;93.7041;982.1824;;;;
2020/01/21 05:02:56;;;;;;;39.5;35.6;;;;;;;0.02;94.86719;982.1558;;;;
2020/01/21 05:05:21;;;;;;;38.9;34.9;;;;;;;-0.04;94.38184;982.1959;;;;
2020/01/21 05:07:46;;;;;;;38.8;34.8;;;;;;;0.05;94.45996;982.147;;;;
2020/01/21 05:10:11;;;;;;;38.6;34.7;;;;;;;0.04;93.89648;982.2;;;;
2020/01/21 05:12:36;;;;;;;37;33.2;;;;;;;-0.11;93.24512;982.1142;;;;
2020/01/21 05:15:01;;;;;;;37;33.3;;;;;;;-0.17;93.68066;982.1387;;;;
2020/01/21 05:17:26;;;;;;;35.6;31.9;;;;;;;-0.08;93.00684;982.0706;;;;
2020/01/21 05:19:51;;;;;;;36.5;32.7;;;;;;;0.02;93.15137;982.0538;;;;
2020/01/21 05:22:16;;;;;;;36.4;32.7;;;;;;;-0.06;93.31152;982.0212;;;;
2020/01/21 05:24:41;;;;;;;36.9;33.2;;;;;;;-0.06;94.32422;982.0252;;;;
2020/01/21 05:27:08;;;;;;;35.7;32;;;;;;;0.03;93.34473;982.1487;;;;
2020/01/21 05:29:31;;;;;;;37.8;33.9;;;;;;;-0.18;93.83594;982.1108;;;;
2020/01/21 05:32:22;;;;;;;37.5;33.6;;;;;;;0.04;94.26758;982.0659;;;;
2020/01/21 05:34:22;;;;;;;37.1;33.3;;;;;;;-0.08;94.17383;982.1802;;;;
2020/01/21 05:36:47;;;;;;;37.6;33.7;;;;;;;-0.01;93.30273;982.1559;;;;
2020/01/21 05:39:12;;;;;;;36.8;33;;;;;;;-0.11;93.58203;982.1763;;;;
2020/01/21 05:41:37;;;;;;;37.3;33.5;;;;;;;-0.07;93.24219;982.157;;;;
2020/01/21 05:46:34;;;;;;;39.8;35.7;;;;;;;-0.41;94.62695;982.1577;;;;
2020/01/21 05:48:52;;;;;;;39.4;35.3;;;;;;;-0.21;94.89551;982.1584;;;;
2020/01/21 05:51:17;;;;;;;39.8;35.6;;;;;;;-0.34;94.46191;982.2109;;;;
2020/01/21 05:53:43;;;;;;;38.6;34.6;;;;;;;-0.3;94.98828;982.1505;;;;
2020/01/21 05:56:08;;;;;;;38.2;34.3;;;;;;;-0.16;94.25684;982.1807;;;;
2020/01/21 05:58:33;;;;;;;40.4;36.2;;;;;;;-0.35;95.04297;982.2139;;;;
2020/01/21 06:00:58;;;;;;;40.1;35.9;;;;;;;-0.44;95.99902;982.1777;;;;
2020/01/21 06:03:23;;;;;;;40.7;36.4;;;;;;;-0.21;94.88281;982.1886;;;;
2020/01/21 06:05:48;;;;;;;40;35.8;;;;;;;-0.18;94.48828;982.21;;;;
2020/01/21 06:08:13;;;;;;;40.7;36.3;;;;;;;-0.43;94.92383;982.2009;;;;
2020/01/21 06:10:38;;;;;;;39.4;35.3;;;;;;;-0.52;94.80469;982.2217;;;;
2020/01/21 06:13:03;;;;;;;37.8;33.9;;;;;;;-0.26;93.63867;982.2698;;;;
2020/01/21 06:15:28;;;;;;;38.7;34.7;;;;;;;-0.52;93.78223;982.2261;;;;
2020/01/21 06:17:53;;;;;;;39.6;35.5;;;;;;;-0.6;95.00879;982.2445;;;;
2020/01/21 06:20:18;;;;;;;40.2;36;;;;;;;-0.51;94.83887;982.2712;;;;
2020/01/21 06:22:43;;;;;;;41.2;36.9;;;;;;;-0.45;94.03418;982.2583;;;;
2020/01/21 06:25:09;;;;;;;41.8;37.3;;;;;;;-0.58;94.73438;982.252;;;;
2020/01/21 06:27:34;;;;;;;41.8;37.4;;;;;;;-0.47;95.33105;982.2317;;;;
2020/01/21 06:29:59;;;;;;;41.9;37.6;;;;;;;-0.38;95.20508;982.2156;;;;
2020/01/21 06:32:24;;;;;;;43;38.4;;;;;;;-0.46;94.80566;982.2311;;;;
2020/01/21 06:34:49;;;;;;;41.4;37.1;;;;;;;-0.41;95.06445;982.2286;;;;
2020/01/21 06:37:14;;;;;;;41.3;37;;;;;;;-0.19;93.86523;982.2019;;;;
2020/01/21 06:39:39;;;;;;;41.7;37.4;;;;;;;-0.3;93.16992;982.269;;;;
2020/01/21 06:42:05;;;;;;;43.1;38.6;;;;;;;-0.51;94.63672;982.2264;;;;
2020/01/21 06:44:30;;;;;;;41.7;37.4;;;;;;;-0.54;94.93359;982.2667;;;;
2020/01/21 06:46:55;;;;;;;41.1;36.8;;;;;;;-0.47;94.79297;982.2375;;;;
2020/01/21 06:49:20;;;;;;;41.7;37.4;;;;;;;-0.09;93.51855;982.2918;;;;
2020/01/21 06:51:45;;;;;;;41.4;37.2;;;;;;;-0.11;92.85254;982.2719;;;;
2020/01/21 06:54:11;;;;;;;39.8;35.7;;;;;;;-0.16;93.33496;982.269;;;;
2020/01/21 06:56:36;;;;;;;41.2;36.9;;;;;;;-0.31;93.78516;982.2636;;;;
2020/01/21 06:59:01;;;;;;;41.7;37.3;;;;;;;-0.63;94.75586;982.2367;;;;
2020/01/21 07:01:26;;;;;;;43.9;39.2;;;;;;;-0.53;94.8252;982.248;;;;
2020/01/21 07:03:51;;;;;;;44.2;39.6;;;;;;;-0.49;94.2168;982.2551;;;;
2020/01/21 07:06:17;;;;;;;44;39.3;;;;;;;-0.45;93.97754;982.2319;;;;
2020/01/21 07:08:42;;;;;;;44.1;39.4;;;;;;;-0.41;93.96289;982.2656;;;;
2020/01/21 07:11:07;;;;;;;44.6;39.9;;;;;;;-0.4;94.41602;982.3166;;;;
2020/01/21 07:13:32;;;;;;;45.1;40.5;;;;;;;-0.3;94.38184;982.2841;;;;
2020/01/21 07:15:58;;;;;;;43.5;38.9;;;;;;;-0.19;92.57715;982.2527;;;;
2020/01/21 07:18:23;;;;;;;43.9;39.4;;;;;;;-0.55;93.93359;982.2151;;;;
2020/01/21 07:20:48;;;;;;;44.1;39.5;;;;;;;-0.44;93.81152;982.1819;;;;
2020/01/21 07:23:13;;;;;;;42.6;38.1;;;;;;;-0.43;93.41016;982.1998;;;;
2020/01/21 07:25:39;;;;;;;42.2;37.9;;;;;;;-0.45;93.68652;982.2559;;;;
2020/01/21 07:28:04;;;;;;;45.5;40.6;;;;;;;-0.67;94.71289;982.3039;;;;
2020/01/21 07:30:29;;;;;;;45;40.3;;;;;;;-0.56;95.0752;982.3401;;;;
2020/01/21 07:32:54;;;;;;;43.3;38.8;;;;;;;-0.19;94.31641;982.3151;;;;
2020/01/21 07:35:19;;;;;;;42.6;38.1;;;;;;;-0.13;92.51172;982.3077;;;;
2020/01/21 07:37:45;;;;;;;43.9;39.4;;;;;;;-0.33;93.12891;982.3806;;;;
2020/01/21 07:40:10;;;;;;;42.6;38.2;;;;;;;-0.19;93.14941;982.3712;;;;
2020/01/21 07:42:36;;;;;;;45.4;40.7;;;;;;;-0.05;93.06836;982.3925;;;;
2020/01/21 07:45:01;;;;;;;44.6;40;;;;;;;-0.04;93.38477;982.4142;;;;
2020/01/21 07:47:26;;;;;;;45.2;40.6;;;;;;;-0.21;92.8623;982.485;;;;
2020/01/21 07:49:51;;;;;;;45.5;40.7;;;;;;;-0.24;93.83301;982.4777;;;;
2020/01/21 07:52:16;;;;;;;43.8;39.4;;;;;;;0.11;91.96973;982.475;;;;
2020/01/21 07:54:42;;;;;;;44.4;39.9;;;;;;;-0.05;91.7666;982.4995;;;;
2020/01/21 07:57:07;;;;;;;43.1;38.7;;;;;;;0.16;92.05859;982.5405;;;;
2020/01/21 07:59:32;;;;;;;42.2;38;;;;;;;0.18;90.56836;982.4931;;;;
2020/01/21 08:02:12;;;;;;;45.2;40.6;;;;;;;0.05;91.39453;982.4836;;;;
2020/01/21 08:04:22;;;;;;;43.4;39;;;;;;;0.02;91.95996;982.4946;;;;
2020/01/21 08:09:13;;;;;;;45.2;40.5;;;;;;;0.11;90.91406;982.5151;;;;
2020/01/21 08:11:46;;;;;;;44.6;40.1;;;;;;;-0.2;91.10449;982.5454;;;;
2020/01/21 08:14:07;;;;;;;45.1;40.5;;;;;;;-0.33;92.65723;982.4976;;;;
2020/01/21 08:16:31;;;;;;;45.3;40.7;;;;;;;-0.25;92.30469;982.512;;;;
2020/01/21 08:18:53;;;;;;;46.2;41.4;;;;;;;-0.2;92.69824;982.5407;;;;
2020/01/21 08:21:19;;;;;;;45.6;40.8;;;;;;;-0.13;91.75098;982.4881;;;;
2020/01/21 08:26:11;;;;;;;45.4;40.7;;;;;;;-0.24;92.85645;982.5258;;;;
2020/01/21 08:28:37;;;;;;;42.8;38.4;;;;;;;-0.17;91.4248;982.5399;;;;
2020/01/21 08:31:00;;;;;;;43;38.7;;;;;;;-0.05;91.53027;982.5229;;;;
2020/01/21 08:33:37;;;;;;;42.8;38.4;;;;;;;0.14;90.30176;982.4846;;;;
2020/01/21 08:36:00;;;;;;;42.2;38;;;;;;;0.1;88.77832;982.5672;;;;
2020/01/21 08:38:15;;;;;;;43.4;39;;;;;;;-0.21;89.85742;982.4967;;;;
2020/01/21 08:40:40;;;;;;;41.2;37;;;;;;;-0.28;90.52637;982.4824;;;;
2020/01/21 08:43:05;;;;;;;113.9;74.6;;;;;;;-0.41;91.31836;982.5991;;;;
2020/01/21 08:47:59;;;;;;;183.6;110.9;;;;;;;-0.6;92.11621;982.5318;;;;
2020/01/21 08:50:46;;;;;;;72.1;52.8;;;;;;;-0.54;91.46875;982.5594;;;;
2020/01/21 08:52:46;;;;;;;126.3;81.3;;;;;;;-0.62;92.14551;982.5758;;;;
2020/01/21 08:55:11;;;;;;;52;43.9;;;;;;;-0.58;92.11133;982.5488;;;;
2020/01/21 08:57:36;;;;;;;43.6;38.9;;;;;;;-0.36;91.40625;982.5538;;;;
2020/01/21 09:00:01;;;;;;;42.9;38.4;;;;;;;-0.51;90.99219;982.5463;;;;
2020/01/21 09:02:27;;;;;;;42.1;37.7;;;;;;;-0.56;91.78809;982.5222;;;;
2020/01/21 09:04:52;;;;;;;41.2;37;;;;;;;-0.36;90.3877;982.5284;;;;
2020/01/21 09:07:17;;;;;;;41.1;36.8;;;;;;;-0.63;90.47363;982.5964;;;;
2020/01/21 09:09:42;;;;;;;41.3;37.1;;;;;;;-0.55;90.625;982.5801;;;;
2020/01/21 09:12:07;;;;;;;41.9;37.6;;;;;;;-0.51;91.32813;982.556;;;;
2020/01/21 09:14:33;;;;;;;40.2;36.2;;;;;;;-0.39;90.5459;982.5605;;;;
2020/01/21 09:16:58;;;;;;;37.3;33.6;;;;;;;-0.07;88.1123;982.6368;;;;
2020/01/21 09:19:23;;;;;;;38.3;34.5;;;;;;;-0.07;88.63965;982.6053;;;;
2020/01/21 09:21:48;;;;;;;37.9;34.1;;;;;;;-0.13;88;982.6014;;;;
2020/01/21 09:24:13;;;;;;;37.1;33.3;;;;;;;-0.02;87.30371;982.6211;;;;
2020/01/21 09:26:38;;;;;;;36.1;32.5;;;;;;;-0.25;87.95313;982.6214;;;;
2020/01/21 09:29:03;;;;;;;36.9;33.2;;;;;;;-0.27;88.04688;982.6041;;;;
2020/01/21 09:31:34;;;;;;;35.1;31.6;;;;;;;-0.35;88.09863;982.6938;;;;
2020/01/21 09:36:19;;;;;;;37.5;33.8;;;;;;;-0.21;88.08398;982.7352;;;;
2020/01/21 09:43:34;;;;;;;37.5;33.7;;;;;;;-0.53;89.0459;982.663;;;;
2020/01/21 09:45:59;;;;;;;38.5;34.5;;;;;;;-0.52;88.80371;982.6526;;;;
2020/01/21 09:48:24;;;;;;;37.4;33.6;;;;;;;-0.6;88.38281;982.6225;;;;
2020/01/21 09:50:49;;;;;;;39.2;35.2;;;;;;;-0.6;89.02148;982.6257;;;;
2020/01/21 09:53:14;;;;;;;37.6;33.6;;;;;;;-0.36;88.28809;982.7166;;;;
2020/01/21 09:55:40;;;;;;;37.1;33.2;;;;;;;-0.23;87.97949;982.6193;;;;
2020/01/21 09:58:05;;;;;;;37.1;33.2;;;;;;;-0.55;88.18066;982.6511;;;;
2020/01/21 10:00:30;;;;;;;36.1;32.4;;;;;;;-0.43;88.22754;982.6216;;;;
2020/01/21 10:02:55;;;;;;;36.2;32.6;;;;;;;-0.31;87.88379;982.5706;;;;
2020/01/21 10:05:21;;;;;;;36.2;32.4;;;;;;;-0.19;87.62793;982.533;;;;
2020/01/21 10:07:46;;;;;;;35.6;32;;;;;;;0.08;86.51563;982.5544;;;;
2020/01/21 10:10:11;;;;;;;35.8;32.3;;;;;;;-0.15;86.12109;982.504;;;;
2020/01/21 10:12:36;;;;;;;36;32.4;;;;;;;0.11;87.20801;982.4744;;;;
2020/01/21 10:15:01;;;;;;;35.5;31.9;;;;;;;-0.03;86.28027;982.485;;;;
2020/01/21 10:17:27;;;;;;;36.6;32.7;;;;;;;0.09;86.57324;982.4853;;;;
2020/01/21 10:19:52;;;;;;;35.9;32.2;;;;;;;0.08;86.50391;982.4941;;;;
2020/01/21 10:22:17;;;;;;;35.2;31.6;;;;;;;0.02;86.01953;982.3824;;;;
2020/01/21 10:24:43;;;;;;;34.1;30.7;;;;;;;0.2;85.37305;982.37;;;;
2020/01/21 10:27:08;;;;;;;36.1;32.5;;;;;;;0.31;85.42871;982.373;;;;
2020/01/21 10:29:33;;;;;;;32.6;29.3;;;;;;;0.34;84.31152;982.3897;;;;
2020/01/21 10:36:50;;;;;;;34.2;30.6;;;;;;;0.72;84.37402;982.3494;;;;
2020/01/21 10:39:14;;;;;;;33.8;30.5;;;;;;;0.88;83;982.2947;;;;
2020/01/21 10:41:39;;;;;;;34.1;30.6;;;;;;;0.82;83.5498;982.2522;;;;
2020/01/21 10:44:04;;;;;;;34.7;31.2;;;;;;;0.63;83.76172;982.2436;;;;
2020/01/21 10:46:29;;;;;;;33.3;29.9;;;;;;;0.79;83.91602;982.1738;;;;
2020/01/21 10:48:54;;;;;;;31.7;28.5;;;;;;;0.72;82.74316;982.1664;;;;
2020/01/21 10:51:19;;;;;;;31.3;28.2;;;;;;;0.82;84.39551;982.1333;;;;
2020/01/21 10:53:44;;;;;;;32.6;29.3;;;;;;;0.87;81.88379;982.1418;;;;
2020/01/21 10:56:09;;;;;;;32.8;29.3;;;;;;;0.78;82.57715;982.1578;;;;
2020/01/21 10:58:34;;;;;;;32.6;29.3;;;;;;;0.39;83.53418;982.1531;;;;
2020/01/21 11:00:59;;;;;;;33.3;29.9;;;;;;;0.47;84.67383;982.1397;;;;
2020/01/21 11:03:24;;;;;;;32.9;29.7;;;;;;;0.42;83.14746;982.1425;;;;
2020/01/21 11:06:03;;;;;;;33.9;30.5;;;;;;;0.53;83.04395;982.1418;;;;
2020/01/21 11:08:28;;;;;;;32.3;29.1;;;;;;;0.55;82.87988;982.1075;;;;
2020/01/21 11:10:53;;;;;;;32.6;29.3;;;;;;;0.74;82.21973;982.0928;;;;
2020/01/21 11:13:18;;;;;;;32.7;29.5;;;;;;;0.68;82.89551;982.0336;;;;
2020/01/21 11:15:43;;;;;;;31.8;28.7;;;;;;;0.61;82.50879;982.0555;;;;
2020/01/21 11:18:08;;;;;;;32.8;29.6;;;;;;;0.63;83.48047;982.0639;;;;
2020/01/21 11:20:33;;;;;;;32.9;29.6;;;;;;;0.58;83.06543;981.968;;;;
2020/01/21 11:23:12;;;;;;;32.5;29.3;;;;;;;0.8;82.0293;981.929;;;;
2020/01/21 11:25:56;;;;;;;32.6;29.3;;;;;;;0.92;81.89453;981.9116;;;;
2020/01/21 11:27:49;;;;;;;30.8;27.7;;;;;;;0.65;83.1377;981.8864;;;;
2020/01/21 11:30:24;;;;;;;32.3;29;;;;;;;0.27;83.65527;981.9102;;;;
2020/01/21 11:35:07;;;;;;;34;30.6;;;;;;;-0.17;85.65625;981.7595;;;;
2020/01/21 11:37:29;;;;;;;33;29.6;;;;;;;-0.13;86.91113;981.7772;;;;
2020/01/21 11:39:54;;;;;;;33.6;30.1;;;;;;;0.14;85.5625;981.779;;;;
2020/01/21 11:47:09;;;;;;;32.8;29.5;;;;;;;0.45;83.34375;981.7809;;;;
2020/01/21 11:49:34;;;;;;;32.7;29.4;;;;;;;0.25;84.73047;981.7742;;;;
2020/01/21 11:51:59;;;;;;;32.9;29.5;;;;;;;0.36;84.04395;981.7389;;;;
2020/01/21 11:54:24;;;;;;;33.4;29.9;;;;;;;0.06;84.625;981.6563;;;;
2020/01/21 11:56:50;;;;;;;33.8;30.4;;;;;;;0.19;85.50586;981.7461;;;;
2020/01/21 11:59:15;;;;;;;32.6;29.1;;;;;;;0.67;83.91699;981.6894;;;;
2020/01/21 12:01:40;;;;;;;32.5;29.2;;;;;;;0.75;83.54883;981.6652;;;;
2020/01/21 12:04:05;;;;;;;32.1;28.7;;;;;;;0.85;81.84668;981.6616;;;;
2020/01/21 12:06:30;;;;;;;33.2;29.7;;;;;;;0.53;83.24609;981.6702;;;;
2020/01/21 12:08:55;;;;;;;32.4;29;;;;;;;0.44;82.79199;981.6508;;;;
2020/01/21 12:11:20;;;;;;;34.2;30.6;;;;;;;0.48;85.00195;981.5691;;;;
2020/01/21 12:13:45;;;;;;;32;28.7;;;;;;;0.7;82.68555;981.5227;;;;
2020/01/21 12:16:10;;;;;;;32.1;28.9;;;;;;;0.57;83.80566;981.5218;;;;
2020/01/21 12:18:38;;;;;;;33.4;29.8;;;;;;;0.36;84.5498;981.4737;;;;
2020/01/21 12:23:27;;;;;;;32.5;29;;;;;;;0.73;83.94824;981.4455;;;;
2020/01/21 12:25:52;;;;;;;33.3;29.8;;;;;;;0.96;83.36621;981.4254;;;;
2020/01/21 12:28:17;;;;;;;32.7;29.2;;;;;;;1.05;82.07813;981.3872;;;;
2020/01/21 12:30:42;;;;;;;32.3;28.9;;;;;;;0.81;82.37988;981.3322;;;;
2020/01/21 12:33:07;;;;;;;31.9;28.6;;;;;;;0.59;83;981.342;;;;
2020/01/21 12:35:32;;;;;;;31.2;27.9;;;;;;;0.7;82.63867;981.3474;;;;
2020/01/21 12:37:57;;;;;;;32;28.7;;;;;;;0.37;83.5625;981.3488;;;;
2020/01/21 12:40:22;;;;;;;31.4;28.2;;;;;;;0.42;83.50781;981.3245;;;;
2020/01/21 12:42:48;;;;;;;32.1;28.7;;;;;;;0.74;83.2207;981.296;;;;
2020/01/21 12:45:13;;;;;;;31.1;27.9;;;;;;;0.92;81.1748;981.2262;;;;
2020/01/21 12:47:38;;;;;;;31.3;28.1;;;;;;;0.82;81.33398;981.225;;;;
2020/01/21 12:50:04;;;;;;;32.4;28.9;;;;;;;0.59;81.59277;981.2263;;;;
2020/01/21 12:52:29;;;;;;;33.9;30.3;;;;;;;0.26;83.62207;981.1872;;;;
2020/01/21 12:54:54;;;;;;;32.2;28.8;;;;;;;0.4;83.40137;981.1848;;;;
2020/01/21 12:57:19;;;;;;;30.6;27.5;;;;;;;0.74;82.1748;981.1172;;;;
2020/01/21 12:59:44;;;;;;;31.5;28.3;;;;;;;0.81;81.34473;981.1027;;;;
2020/01/21 13:02:09;;;;;;;30.3;27.3;;;;;;;0.66;81.79883;981.1365;;;;
2020/01/21 13:04:34;;;;;;;30.8;27.6;;;;;;;0.39;82.31055;981.0828;;;;
2020/01/21 13:06:59;;;;;;;30.5;27.3;;;;;;;0.23;83.1875;981.0311;;;;
2020/01/21 13:09:25;;;;;;;32.7;29.3;;;;;;;0.41;83.54688;981.051;;;;
2020/01/21 13:11:50;;;;;;;32.4;29;;;;;;;0.46;83.59277;981.0402;;;;
2020/01/21 13:14:20;;;;;;;32.2;28.7;;;;;;;0.28;84.18555;981.0167;;;;
2020/01/21 13:16:43;;;;;;;30.4;27.3;;;;;;;0.74;82.01758;981.007;;;;
2020/01/21 13:21:30;;;;;;;31.7;28.3;;;;;;;0.52;83.20117;980.8972;;;;
2020/01/21 13:23:55;;;;;;;31.5;28.1;;;;;;;0.42;82.75293;980.9395;;;;
2020/01/21 13:26:20;;;;;;;32.9;29.4;;;;;;;0.55;84.19531;980.9022;;;;
2020/01/21 13:28:46;;;;;;;31.8;28.6;;;;;;;0.48;82.82129;980.9249;;;;
2020/01/21 13:31:11;;;;;;;32.9;29.3;;;;;;;0.38;83.64453;980.9138;;;;
2020/01/21 13:33:36;;;;;;;31.7;28.4;;;;;;;0.36;84.13379;980.8915;;;;
2020/01/21 13:36:01;;;;;;;32.3;28.9;;;;;;;0.48;84.33887;980.9178;;;;
2020/01/21 13:38:26;;;;;;;33.2;29.7;;;;;;;0.28;84.98438;980.8494;;;;
2020/01/21 13:40:51;;;;;;;32.3;28.3;;;;;;;0.4;84.32227;980.8826;;;;
2020/01/21 13:43:16;;;;;;;31.6;28.4;;;;;;;0.38;85.29492;980.7781;;;;
2020/01/21 13:45:41;;;;;;;31.1;27.8;;;;;;;0.1;84.59863;980.6937;;;;
2020/01/21 13:48:06;;;;;;;31.1;27.8;;;;;;;0.31;85.42676;980.6577;;;;
2020/01/21 13:50:31;;;;;;;32.1;28.7;;;;;;;0.24;85.87402;980.6077;;;;
2020/01/21 13:52:56;;;;;;;33.5;28.9;;;;;;;0.4;85.33398;980.6714;;;;
2020/01/21 13:55:21;;;;;;;32;28.5;;;;;;;0.23;85.31055;980.6066;;;;
2020/01/21 13:57:47;;;;;;;31.2;28;;;;;;;0.4;85.44629;980.6598;;;;
2020/01/21 14:00:19;;;;;;;32;28.6;;;;;;;0.45;85.51367;980.6295;;;;
2020/01/21 14:05:15;;;;;;;32.3;28.9;;;;;;;0.42;84.85645;980.6028;;;;
2020/01/21 14:07:28;;;;;;;30.7;27.6;;;;;;;0.74;84.09766;980.6309;;;;
2020/01/21 14:09:53;;;;;;;31.7;28.2;;;;;;;0.65;84.2168;980.553;;;;
2020/01/21 14:12:18;;;;;;;31.2;28;;;;;;;0.46;83.93945;980.5761;;;;
2020/01/21 14:14:43;;;;;;;32;28.5;;;;;;;0.39;84.6582;980.6359;;;;
2020/01/21 14:17:08;;;;;;;31.5;28.1;;;;;;;0.23;85.68164;980.5629;;;;
2020/01/21 14:19:33;;;;;;;31.1;27.7;;;;;;;0.4;85.68262;980.4753;;;;
2020/01/21 14:21:58;;;;;;;31.4;28.1;;;;;;;0.3;85.3125;980.4978;;;;
2020/01/21 14:24:24;;;;;;;32.4;29;;;;;;;0.16;86.25098;980.4666;;;;
2020/01/21 14:26:49;;;;;;;33.1;29.2;;;;;;;0.29;85.69434;980.5076;;;;
2020/01/21 14:29:14;;;;;;;31.8;28.3;;;;;;;0.16;86.39941;980.468;;;;
2020/01/21 14:31:39;;;;;;;33.1;28.1;;;;;;;0.18;86.16699;980.4642;;;;
2020/01/21 14:34:04;;;;;;;31.7;28.4;;;;;;;0.29;85.33496;980.4717;;;;
2020/01/21 14:36:30;;;;;;;31.1;27.9;;;;;;;0.16;86.21875;980.4799;;;;
2020/01/21 14:38:55;;;;;;;33;29.4;;;;;;;-0.03;86.69336;980.4551;;;;
2020/01/21 14:41:20;;;;;;;31.9;28.6;;;;;;;-0.02;87.03418;980.4398;;;;
2020/01/21 14:43:45;;;;;;;30.5;27.2;;;;;;;0.25;87.08984;980.4441;;;;
2020/01/21 14:46:10;;;;;;;29.5;26.3;;;;;;;;;;;;;
2020/01/21 14:48:35;;;;;;;30.1;26.9;;;;;;;;;;;;;
2020/01/21 14:51:00;;;;;;;29.4;26.4;;;;;;;;;;;;;
2020/01/21 14:53:25;;;;;;;29.7;26.5;;;;;;;;;;;;;
2020/01/21 14:55:50;;;;;;;30.4;26.5;;;;;;;;;;;;;
2020/01/21 14:58:18;;;;;;;29.5;26.4;;;;;;;;;;;;;